Time,TemperatureF,DewpointF,PressureIn,WindDirection,WindDirectionDegrees,WindSpeedMPH,WindSpeedGustMPH,Humidity,HourlyPrecipIn,Conditions,Clouds,dailyrainin,SolarRadiationWatts/m^2,SoftwareType,DateUTC
2013-01-01 00:00:00,49.8,47.0,30.03,NE,45,5.8,5.8,90,0.00,RA,,0.00,0.0,WeatherDisplay:10.37,2013-01-01 06:00:00,
2013-01-01 00:05:00,49.8,47.0,30.03,NW,315,2.3,3.6,90,0.00,RA,,0.00,0.0,WeatherDisplay:10.37,2013-01-01 06:05:00,
2013-01-01 00:10:00,49.8,47.0,30.03,NW,315,2.4,3.6,90,0.00,CLR,,0.00,0.0,WeatherDisplay:10.37,2013-01-01 06:10:00,
2013-01-01 00:16:00,49.8,47.0,30.03,NNW,338,4.6,4.6,90,0.00,CLR,,0.00,0.0,WeatherDisplay:10.37,2013-01-01 06:16:00,
2013-01-01 00:21:00,49.8,47.0,30.03,West,270,2.3,2.8,90,0.00,CLR,,0.00,0.0,WeatherDisplay:10.37,2013-01-01 06:21:00,
2013-01-01 00:26:00,49.8,47.0,30.03,NNE,22,2.3,2.6,90,0.00,CLR,,0.00,0.0,WeatherDisplay:10.37,2013-01-01 06:26:00,
2013-01-01 00:31:00,49.8,47.0,30.03,NW,315,5.8,5.8,90,0.00,CLR,,0.00,0.0,WeatherDisplay:10.37,2013-01-01 06:31:00,
2013-01-01 00:37:00,49.8,47.0,30.03,NNW,338,4.6,4.6,90,0.00,CLR,,0.00,0.0,WeatherDisplay:10.37,2013-01-01 06:37:00,
2013-01-01 00:42:00,49.8,47.0,30.03,NW,315,1.2,2.4,90,0.00,CLR,,0.00,0.0,WeatherDisplay:10.37,2013-01-01 06:42:00,
2013-01-01 00:47:00,49.8,47.0,30.03,ENE,68,2.3,2.3,90,0.00,CLR,,0.00,0.0,WeatherDisplay:10.37,2013-01-01 06:47:00,
2013-01-01 00:52:00,49.8,47.0,30.03,North,0,2.3,2.3,90,0.00,CLR,,0.00,0.0,WeatherDisplay:10.37,2013-01-01 06:52:00,
2013-01-01 00:58:00,49.8,47.0,30.03,NNE,22,3.5,3.5,90,0.00,CLR,,0.00,0.0,WeatherDisplay:10.37,2013-01-01 06:58:00,
2013-01-01 01:03:00,49.8,47.0,30.03,NNW,338,4.6,4.6,90,0.00,CLR,,0.00,0.0,WeatherDisplay:10.37,2013-01-01 07:03:00,
2013-01-01 01:08:00,49.8,47.0,30.03,WSW,248,2.3,2.3,90,0.00,CLR,,0.00,0.0,WeatherDisplay:10.37,2013-01-01 07:08:00,
2013-01-01 01:13:00,49.8,47.0,30.03,NNE,22,4.6,4.6,90,0.00,CLR,,0.00,0.0,WeatherDisplay:10.37,2013-01-01 07:13:00,
2013-01-01 01:19:00,49.8,47.0,30.03,NNE,22,2.3,2.3,90,0.00,CLR,,0.00,0.0,WeatherDisplay:10.37,2013-01-01 07:19:00,
2013-01-01 01:24:00,49.8,47.0,30.03,NNE,22,2.3,2.3,90,0.00,CLR,,0.00,0.0,WeatherDisplay:10.37,2013-01-01 07:24:00,
2013-01-01 01:29:00,49.8,47.0,30.03,NNE,22,3.5,3.5,90,0.00,CLR,,0.00,0.0,WeatherDisplay:10.37,2013-01-01 07:29:00,
2013-01-01 01:34:00,49.8,47.0,30.03,NNW,338,2.3,2.3,90,0.00,CLR,,0.00,0.0,WeatherDisplay:10.37,2013-01-01 07:34:00,
2013-01-01 01:40:00,49.8,47.0,30.03,NE,45,3.5,3.5,90,0.00,CLR,,0.00,0.0,WeatherDisplay:10.37,2013-01-01 07:40:00,
2013-01-01 01:45:00,49.8,47.0,30.03,NW,315,2.3,2.3,90,0.00,CLR,,0.00,0.0,WeatherDisplay:10.37,2013-01-01 07:45:00,
2013-01-01 01:50:00,49.8,47.0,30.04,NNE,22,2.5,2.5,90,0.00,CLR,,0.00,0.0,WeatherDisplay:10.37,2013-01-01 07:50:00,
2013-01-01 01:55:00,49.8,47.0,30.04,NNW,338,3.7,3.7,90,0.00,CLR,,0.00,0.0,WeatherDisplay:10.37,2013-01-01 07:55:00,
2013-01-01 02:01:00,49.8,47.0,30.04,NNW,338,3.6,3.6,90,0.00,CLR,,0.00,0.0,WeatherDisplay:10.37,2013-01-01 08:01:00,
2013-01-01 02:06:00,49.8,47.0,30.04,NNE,22,1.2,2.1,90,0.00,CLR,,0.00,0.0,WeatherDisplay:10.37,2013-01-01 08:06:00,
2013-01-01 02:11:00,49.8,47.0,30.05,NE,45,2.4,2.4,90,0.00,CLR,,0.00,0.0,WeatherDisplay:10.37,2013-01-01 08:11:00,
2013-01-01 02:16:00,49.8,47.0,30.05,North,0,5.8,5.8,90,0.00,CLR,,0.00,0.0,WeatherDisplay:10.37,2013-01-01 08:16:00,
2013-01-01 02:21:00,49.8,47.0,30.05,NNW,338,4.6,4.6,90,0.00,CLR,,0.00,0.0,WeatherDisplay:10.37,2013-01-01 08:21:00,
2013-01-01 02:27:00,49.8,47.0,30.05,NNW,338,2.3,2.3,90,0.00,CLR,,0.00,0.0,WeatherDisplay:10.37,2013-01-01 08:27:00,
2013-01-01 02:32:00,49.8,47.0,30.04,East,90,2.3,2.3,90,0.00,CLR,,0.00,0.0,WeatherDisplay:10.37,2013-01-01 08:32:00,
2013-01-01 02:37:00,49.8,47.0,30.04,SW,225,1.2,2.2,90,0.00,CLR,,0.00,0.0,WeatherDisplay:10.37,2013-01-01 08:37:00,
2013-01-01 02:43:00,49.8,47.0,30.04,NNW,338,2.3,2.3,90,0.00,CLR,,0.00,0.0,WeatherDisplay:10.37,2013-01-01 08:43:00,
2013-01-01 02:48:00,49.8,47.0,30.04,NW,315,2.3,2.3,90,0.00,CLR,,0.00,0.0,WeatherDisplay:10.37,2013-01-01 08:48:00,
2013-01-01 02:53:00,49.8,47.0,30.06,NNE,22,3.8,3.8,90,0.00,CLR,,0.00,0.0,WeatherDisplay:10.37,2013-01-01 08:53:00,
2013-01-01 02:58:00,49.8,47.0,30.06,NE,45,3.5,3.5,90,0.00,CLR,,0.00,0.0,WeatherDisplay:10.37,2013-01-01 08:58:00,
2013-01-01 03:04:00,49.8,47.0,30.06,NNW,338,2.3,2.3,90,0.00,CLR,,0.00,0.0,WeatherDisplay:10.37,2013-01-01 09:04:00,
2013-01-01 03:09:00,49.8,47.0,30.06,NNW,338,1.2,1.6,90,0.00,CLR,,0.00,0.0,WeatherDisplay:10.37,2013-01-01 09:09:00,
2013-01-01 03:14:00,49.8,47.0,30.07,NNW,338,2.3,2.3,90,0.00,CLR,,0.00,0.0,WeatherDisplay:10.37,2013-01-01 09:14:00,
2013-01-01 03:19:00,49.8,47.0,30.07,NE,45,1.5,1.5,90,0.00,CLR,,0.00,0.0,WeatherDisplay:10.37,2013-01-01 09:19:00,
2013-01-01 03:25:00,49.8,47.0,30.07,NNW,338,3.5,3.5,90,0.00,CLR,,0.00,0.0,WeatherDisplay:10.37,2013-01-01 09:25:00,
2013-01-01 03:30:00,49.8,47.0,30.08,WNW,292,5.8,5.8,90,0.00,CLR,,0.00,0.0,WeatherDisplay:10.37,2013-01-01 09:30:00,
2013-01-01 03:35:00,49.8,47.0,30.08,WNW,292,2.3,2.3,90,0.00,CLR,,0.00,0.0,WeatherDisplay:10.37,2013-01-01 09:35:00,
2013-01-01 03:41:00,49.8,47.0,30.08,NNE,22,2.3,2.6,90,0.00,CLR,,0.00,0.0,WeatherDisplay:10.37,2013-01-01 09:41:00,
2013-01-01 03:46:00,49.8,47.0,30.08,NNW,338,2.3,2.3,90,0.00,CLR,,0.00,0.0,WeatherDisplay:10.37,2013-01-01 09:46:00,
2013-01-01 03:51:00,49.8,47.0,30.08,NNW,338,3.5,3.5,90,0.00,CLR,,0.00,0.0,WeatherDisplay:10.37,2013-01-01 09:51:00,
2013-01-01 03:56:00,49.8,47.0,30.08,NW,315,2.8,2.8,90,0.00,CLR,,0.00,0.0,WeatherDisplay:10.37,2013-01-01 09:56:00,
2013-01-01 04:02:00,49.8,47.0,30.08,NNE,22,2.6,2.6,90,0.00,CLR,,0.00,0.0,WeatherDisplay:10.37,2013-01-01 10:02:00,
2013-01-01 04:07:00,49.8,47.0,30.08,NNW,338,2.9,2.9,90,0.00,CLR,,0.00,0.0,WeatherDisplay:10.37,2013-01-01 10:07:00,
2013-01-01 04:12:00,49.8,47.0,30.07,North,0,2.3,2.3,90,0.00,CLR,,0.00,0.0,WeatherDisplay:10.37,2013-01-01 10:12:00,
2013-01-01 04:17:00,49.8,47.0,30.07,North,0,4.6,4.6,90,0.00,CLR,,0.00,0.0,WeatherDisplay:10.37,2013-01-01 10:17:00,
2013-01-01 04:23:00,49.8,47.0,30.07,WNW,292,2.3,2.3,90,0.00,CLR,,0.00,0.0,WeatherDisplay:10.37,2013-01-01 10:23:00,
2013-01-01 04:28:00,49.8,47.0,30.07,NNE,22,2.3,3.2,90,0.00,CLR,,0.00,0.0,WeatherDisplay:10.37,2013-01-01 10:28:00,
2013-01-01 04:33:00,49.8,47.0,30.08,NW,315,4.5,4.5,90,0.00,CLR,,0.00,0.0,WeatherDisplay:10.37,2013-01-01 10:33:00,
2013-01-01 04:39:00,49.8,47.0,30.08,NNW,338,4.6,4.6,90,0.00,CLR,,0.00,0.0,WeatherDisplay:10.37,2013-01-01 10:39:00,
2013-01-01 04:44:00,49.8,47.0,30.08,NNW,338,3.9,3.9,90,0.00,CLR,,0.00,0.0,WeatherDisplay:10.37,2013-01-01 10:44:00,
2013-01-01 04:49:00,49.8,47.0,30.08,NNW,338,3.5,3.5,90,0.00,CLR,,0.00,0.0,WeatherDisplay:10.37,2013-01-01 10:49:00,
2013-01-01 04:54:00,49.8,47.0,30.08,WSW,248,3.5,3.5,90,0.00,CLR,,0.00,0.0,WeatherDisplay:10.37,2013-01-01 10:54:00,
2013-01-01 05:00:00,49.8,47.0,30.08,WSW,248,2.8,2.8,90,0.00,CLR,,0.00,0.0,WeatherDisplay:10.37,2013-01-01 11:00:00,
2013-01-01 05:05:00,49.8,47.0,30.08,WSW,248,2.3,2.8,90,0.00,CLR,,0.00,0.0,WeatherDisplay:10.37,2013-01-01 11:05:00,
2013-01-01 05:10:00,49.8,47.0,30.07,NW,315,6.9,6.9,90,0.00,CLR,,0.00,0.0,WeatherDisplay:10.37,2013-01-01 11:10:00,
2013-01-01 05:15:00,49.8,47.0,30.07,NW,315,6.9,6.9,90,0.00,CLR,,0.00,0.0,WeatherDisplay:10.37,2013-01-01 11:15:00,
2013-01-01 05:21:00,49.8,47.0,30.07,NW,315,6.9,6.9,90,0.00,CLR,,0.00,0.0,WeatherDisplay:10.37,2013-01-01 11:21:00,
2013-01-01 05:26:00,49.8,47.0,30.07,NW,315,0.0,0.0,90,0.00,CLR,,0.00,0.0,WeatherDisplay:10.37,2013-01-01 11:26:00,
2013-01-01 05:31:00,49.8,47.0,30.12,NW,315,0.0,0.0,90,0.00,CLR,,0.00,0.0,WeatherDisplay:10.37,2013-01-01 11:31:00,
2013-01-01 05:37:00,49.8,47.0,30.12,NW,315,0.0,0.0,90,0.00,CLR,,0.00,0.0,WeatherDisplay:10.37,2013-01-01 11:37:00,
2013-01-01 05:42:00,49.8,47.0,30.12,NW,315,0.0,0.0,90,0.00,CLR,,0.00,0.0,WeatherDisplay:10.37,2013-01-01 11:42:00,
2013-01-01 05:47:00,49.8,47.0,30.12,NW,315,0.0,0.0,90,0.00,CLR,,0.00,0.0,WeatherDisplay:10.37,2013-01-01 11:47:00,
2013-01-01 05:52:00,49.8,47.0,30.09,NW,315,0.0,0.0,90,0.00,CLR,,0.00,0.0,WeatherDisplay:10.37,2013-01-01 11:52:00,
2013-01-01 05:57:00,49.8,47.0,30.09,NW,315,0.0,0.0,90,0.00,CLR,,0.00,0.0,WeatherDisplay:10.37,2013-01-01 11:57:00,
2013-01-01 06:03:00,49.8,47.0,30.09,NW,315,0.0,0.0,90,0.00,CLR,,0.00,0.0,WeatherDisplay:10.37,2013-01-01 12:03:00,
2013-01-01 06:08:00,49.8,47.0,30.09,NW,315,0.0,0.0,90,0.00,CLR,,0.00,0.0,WeatherDisplay:10.37,2013-01-01 12:08:00,
2013-01-01 06:13:00,49.8,47.0,30.10,NW,315,0.0,0.0,90,0.00,CLR,,0.00,0.0,WeatherDisplay:10.37,2013-01-01 12:13:00,
2013-01-01 06:18:00,49.8,47.0,30.10,NW,315,0.0,0.0,90,0.00,CLR,,0.00,0.0,WeatherDisplay:10.37,2013-01-01 12:18:00,
2013-01-01 06:24:00,49.8,47.0,30.10,NW,315,0.0,0.0,90,0.00,CLR,,0.00,0.0,WeatherDisplay:10.37,2013-01-01 12:24:00,
2013-01-01 06:29:00,49.8,47.0,30.10,NW,315,0.0,0.0,90,0.00,CLR,,0.00,0.0,WeatherDisplay:10.37,2013-01-01 12:29:00,
2013-01-01 06:34:00,49.8,47.0,30.11,NW,315,0.0,0.0,90,0.00,CLR,,0.00,0.0,WeatherDisplay:10.37,2013-01-01 12:34:00,
2013-01-01 06:40:00,49.8,47.0,30.11,NW,315,0.0,0.0,90,0.00,CLR,,0.00,0.0,WeatherDisplay:10.37,2013-01-01 12:40:00,
2013-01-01 06:45:00,49.8,47.0,30.11,NW,315,0.0,0.0,90,0.00,CLR,,0.00,0.0,WeatherDisplay:10.37,2013-01-01 12:45:00,
2013-01-01 06:50:00,49.8,47.0,30.11,NW,315,0.0,0.0,90,0.00,CLR,,0.00,0.0,WeatherDisplay:10.37,2013-01-01 12:50:00,
2013-01-01 06:56:00,49.8,47.0,30.11,NW,315,0.0,0.0,90,0.00,CLR,,0.00,0.0,WeatherDisplay:10.37,2013-01-01 12:56:00,
2013-01-01 07:01:00,49.8,47.0,30.11,NW,315,0.0,0.0,90,0.00,OVC,,0.00,0.0,WeatherDisplay:10.37,2013-01-01 13:01:00,
2013-01-01 07:06:00,49.8,47.0,30.11,NW,315,0.0,0.0,90,0.00,OVC,,0.00,0.0,WeatherDisplay:10.37,2013-01-01 13:06:00,
2013-01-01 07:11:00,49.8,47.0,30.15,NW,315,0.0,0.0,90,0.00,OVC,,0.00,0.0,WeatherDisplay:10.37,2013-01-01 13:11:00,
2013-01-01 07:16:00,49.8,47.0,30.15,NW,315,0.0,0.0,90,0.00,OVC,,0.00,0.0,WeatherDisplay:10.37,2013-01-01 13:16:00,
2013-01-01 07:22:00,49.8,47.0,30.15,NW,315,0.0,0.0,90,0.00,OVC,,0.00,0.0,WeatherDisplay:10.37,2013-01-01 13:22:00,
2013-01-01 07:27:00,49.8,47.0,30.15,NW,315,0.0,0.0,90,0.00,OVC,,0.00,0.0,WeatherDisplay:10.37,2013-01-01 13:27:00,
2013-01-01 07:32:00,49.8,47.0,30.14,NW,315,0.0,0.0,90,0.00,OVC,,0.00,0.0,WeatherDisplay:10.37,2013-01-01 13:32:00,
2013-01-01 07:38:00,49.8,47.0,30.14,NW,315,0.0,0.0,90,0.00,OVC,,0.00,0.0,WeatherDisplay:10.37,2013-01-01 13:38:00,
2013-01-01 07:43:00,49.8,47.0,30.14,NW,315,0.0,0.0,90,0.00,OVC,,0.00,0.0,WeatherDisplay:10.37,2013-01-01 13:43:00,
2013-01-01 07:48:00,42.3,37.8,30.14,NW,315,0.0,0.0,84,0.00,OVC,,0.00,0.0,WeatherDisplay:10.37,2013-01-01 13:48:00,
2013-01-01 07:53:00,42.3,37.8,30.15,NW,315,0.0,0.0,84,0.00,OVC,,0.00,0.0,WeatherDisplay:10.37,2013-01-01 13:53:00,
2013-01-01 07:59:00,42.1,37.6,30.15,NW,315,0.0,0.0,84,0.00,OVC,,0.00,0.0,WeatherDisplay:10.37,2013-01-01 13:59:00,
2013-01-01 08:04:00,42.1,37.6,30.15,NW,315,0.0,0.0,84,0.00,OVC,,0.00,0.0,WeatherDisplay:10.37,2013-01-01 14:04:00,
2013-01-01 08:09:00,42.1,37.6,30.15,NW,315,0.0,0.0,84,0.00,OVC,,0.00,0.0,WeatherDisplay:10.37,2013-01-01 14:09:00,
2013-01-01 08:14:00,42.1,37.6,30.17,NW,315,0.0,0.0,84,0.00,OVC,,0.00,0.0,WeatherDisplay:10.37,2013-01-01 14:14:00,
2013-01-01 08:20:00,42.1,37.6,30.17,NW,315,0.0,0.0,84,0.00,OVC,,0.00,0.0,WeatherDisplay:10.37,2013-01-01 14:20:00,
2013-01-01 08:25:00,42.1,37.6,30.17,NW,315,0.0,0.0,84,0.00,OVC,,0.00,0.0,WeatherDisplay:10.37,2013-01-01 14:25:00,
2013-01-01 08:30:00,42.1,37.6,30.19,NW,315,0.0,0.0,84,0.00,OVC,,0.00,0.0,WeatherDisplay:10.37,2013-01-01 14:30:00,
2013-01-01 08:35:00,42.1,37.6,30.19,NW,315,0.0,0.0,84,0.00,OVC,,0.00,0.0,WeatherDisplay:10.37,2013-01-01 14:35:00,
2013-01-01 08:40:00,41.5,37.4,30.19,NW,315,0.0,0.0,85,0.00,OVC,,0.00,0.0,WeatherDisplay:10.37,2013-01-01 14:40:00,
2013-01-01 08:45:00,41.5,37.4,30.19,NW,315,0.0,0.0,85,0.00,OVC,,0.00,0.0,WeatherDisplay:10.37,2013-01-01 14:45:00,
2013-01-01 08:51:00,41.5,37.4,30.19,NW,315,0.0,0.0,85,0.00,OVC,,0.00,0.0,WeatherDisplay:10.37,2013-01-01 14:51:00,
2013-01-01 08:56:00,41.5,37.4,30.19,NW,315,0.0,0.0,85,0.00,OVC,,0.00,0.0,WeatherDisplay:10.37,2013-01-01 14:56:00,
2013-01-01 09:01:00,41.4,37.2,30.19,NW,315,0.0,0.0,85,0.00,OVC,,0.00,0.0,WeatherDisplay:10.37,2013-01-01 15:01:00,
2013-01-01 09:06:00,41.4,37.2,30.19,NW,315,0.0,0.0,85,0.00,OVC,,0.00,0.0,WeatherDisplay:10.37,2013-01-01 15:06:00,
2013-01-01 09:11:00,41.4,37.2,30.21,NW,315,0.0,0.0,85,0.00,OVC,,0.00,0.0,WeatherDisplay:10.37,2013-01-01 15:11:00,
2013-01-01 09:17:00,41.2,37.0,30.21,NW,315,0.0,0.0,85,0.00,OVC,,0.00,0.0,WeatherDisplay:10.37,2013-01-01 15:17:00,
2013-01-01 09:22:00,41.0,36.8,30.21,NW,315,0.0,0.0,85,0.00,OVC,,0.00,10.0,WeatherDisplay:10.37,2013-01-01 15:22:00,
2013-01-01 09:27:00,41.2,37.0,30.21,NW,315,0.0,0.0,85,0.00,OVC,,0.00,10.0,WeatherDisplay:10.37,2013-01-01 15:27:00,
2013-01-01 09:32:00,41.2,37.0,30.22,NW,315,0.0,0.0,85,0.00,OVC,,0.00,10.0,WeatherDisplay:10.37,2013-01-01 15:32:00,
2013-01-01 09:37:00,41.2,37.0,30.22,NW,315,0.0,0.0,85,0.00,OVC,,0.00,10.0,WeatherDisplay:10.37,2013-01-01 15:37:00,
2013-01-01 09:43:00,41.2,37.0,30.22,NW,315,0.0,0.0,85,0.00,OVC,,0.00,0.0,WeatherDisplay:10.37,2013-01-01 15:43:00,
2013-01-01 09:48:00,40.8,36.7,30.22,NW,315,0.0,0.0,85,0.00,OVC,,0.00,10.0,WeatherDisplay:10.37,2013-01-01 15:48:00,
2013-01-01 09:53:00,40.8,37.0,30.20,NW,315,0.0,0.0,86,0.00,OVC,,0.00,10.0,WeatherDisplay:10.37,2013-01-01 15:53:00,
2013-01-01 09:58:00,40.8,37.0,30.20,NW,315,0.0,0.0,86,0.00,OVC,,0.00,30.0,WeatherDisplay:10.37,2013-01-01 15:58:00,
2013-01-01 10:03:00,40.6,36.8,30.20,NW,315,0.0,0.0,86,0.00,OVC,,0.00,50.0,WeatherDisplay:10.37,2013-01-01 16:03:00,
2013-01-01 10:08:00,40.6,36.8,30.20,NW,315,0.0,0.0,86,0.00,OVC,,0.00,70.0,WeatherDisplay:10.37,2013-01-01 16:08:00,
2013-01-01 10:14:00,40.8,36.7,30.23,NW,315,0.0,0.0,85,0.00,OVC,,0.00,60.0,WeatherDisplay:10.37,2013-01-01 16:14:00,
2013-01-01 10:19:00,40.8,36.7,30.23,NW,315,0.0,0.0,85,0.00,OVC,,0.00,80.0,WeatherDisplay:10.37,2013-01-01 16:19:00,
2013-01-01 10:24:00,40.8,36.7,30.23,NW,315,0.0,0.0,85,0.00,OVC,,0.00,50.0,WeatherDisplay:10.37,2013-01-01 16:24:00,
2013-01-01 10:29:00,40.8,36.4,30.23,NW,315,0.0,0.0,84,0.00,OVC,,0.00,60.0,WeatherDisplay:10.37,2013-01-01 16:29:00,
2013-01-01 10:35:00,40.8,36.4,30.24,NW,315,0.0,0.0,84,0.00,OVC,,0.00,50.0,WeatherDisplay:10.37,2013-01-01 16:35:00,
2013-01-01 10:40:00,40.8,36.1,30.24,NW,315,0.0,0.0,83,0.00,OVC,,0.00,50.0,WeatherDisplay:10.37,2013-01-01 16:40:00,
2013-01-01 10:45:00,40.8,36.1,30.24,NW,315,0.0,0.0,83,0.00,OVC,,0.00,60.0,WeatherDisplay:10.37,2013-01-01 16:45:00,
2013-01-01 10:50:00,41.2,36.7,30.25,NW,315,0.0,0.0,84,0.00,OVC,,0.00,70.0,WeatherDisplay:10.37,2013-01-01 16:50:00,
2013-01-01 10:55:00,41.2,36.7,30.25,NW,315,0.0,0.0,84,0.00,OVC,,0.00,70.0,WeatherDisplay:10.37,2013-01-01 16:55:00,
2013-01-01 11:00:00,41.2,36.4,30.25,NW,315,0.0,0.0,83,0.00,OVC,,0.00,80.0,WeatherDisplay:10.37,2013-01-01 17:00:00,
2013-01-01 11:05:00,41.2,36.1,30.25,NW,315,0.0,0.0,82,0.00,OVC,,0.00,110.0,WeatherDisplay:10.37,2013-01-01 17:05:00,
2013-01-01 11:11:00,41.4,36.3,30.24,NW,315,0.0,0.0,82,0.00,OVC,,0.00,140.0,WeatherDisplay:10.37,2013-01-01 17:11:00,
2013-01-01 11:16:00,41.5,36.5,30.24,NW,315,0.0,0.0,82,0.00,OVC,,0.00,120.0,WeatherDisplay:10.37,2013-01-01 17:16:00,
2013-01-01 11:21:00,41.5,36.1,30.24,NW,315,0.0,0.0,81,0.00,OVC,,0.00,120.0,WeatherDisplay:10.37,2013-01-01 17:21:00,
2013-01-01 11:26:00,41.9,36.5,30.24,NW,315,0.0,0.0,81,0.00,OVC,,0.00,120.0,WeatherDisplay:10.37,2013-01-01 17:26:00,
2013-01-01 11:31:00,41.9,36.5,30.25,NW,315,0.0,0.0,81,0.00,OVC,,0.00,150.0,WeatherDisplay:10.37,2013-01-01 17:31:00,
2013-01-01 11:37:00,41.9,36.5,30.25,NW,315,0.0,0.0,81,0.00,OVC,,0.00,140.0,WeatherDisplay:10.37,2013-01-01 17:37:00,
2013-01-01 11:42:00,42.1,36.7,30.25,NW,315,0.0,0.0,81,0.00,OVC,,0.00,180.0,WeatherDisplay:10.37,2013-01-01 17:42:00,
2013-01-01 11:47:00,41.9,36.2,30.25,NW,315,0.0,0.0,80,0.00,OVC,,0.00,180.0,WeatherDisplay:10.37,2013-01-01 17:47:00,
2013-01-01 11:52:00,42.3,36.5,30.24,NW,315,0.0,0.0,80,0.00,OVC,,0.00,170.0,WeatherDisplay:10.37,2013-01-01 17:52:00,
2013-01-01 11:57:00,42.1,36.4,30.24,NW,315,0.0,0.0,80,0.00,OVC,,0.00,170.0,WeatherDisplay:10.37,2013-01-01 17:57:00,
2013-01-01 12:02:00,42.6,36.9,30.24,NW,315,0.0,0.0,80,0.00,OVC,,0.00,180.0,WeatherDisplay:10.37,2013-01-01 18:02:00,
2013-01-01 12:07:00,42.6,36.9,30.24,NW,315,0.0,0.0,80,0.00,OVC,,0.00,180.0,WeatherDisplay:10.37,2013-01-01 18:07:00,
2013-01-01 12:13:00,42.6,36.9,30.23,NW,315,0.0,0.0,80,0.00,OVC,,0.00,210.0,WeatherDisplay:10.37,2013-01-01 18:13:00,
2013-01-01 12:18:00,42.8,36.7,30.23,NW,315,0.0,0.0,79,0.00,OVC,,0.00,210.0,WeatherDisplay:10.37,2013-01-01 18:18:00,
2013-01-01 12:23:00,43.0,36.9,30.23,NW,315,0.0,0.0,79,0.00,OVC,,0.00,180.0,WeatherDisplay:10.37,2013-01-01 18:23:00,
2013-01-01 12:28:00,43.0,36.6,30.23,NW,315,0.0,0.0,78,0.00,OVC,,0.00,180.0,WeatherDisplay:10.37,2013-01-01 18:28:00,
2013-01-01 12:33:00,43.0,36.6,30.23,NW,315,0.0,0.0,78,0.00,OVC,,0.00,170.0,WeatherDisplay:10.37,2013-01-01 18:33:00,
2013-01-01 12:38:00,43.0,36.6,30.23,NW,315,0.0,0.0,78,0.00,OVC,,0.00,170.0,WeatherDisplay:10.37,2013-01-01 18:38:00,
2013-01-01 12:43:00,43.0,36.6,30.23,NW,315,0.0,0.0,78,0.00,OVC,,0.00,220.0,WeatherDisplay:10.37,2013-01-01 18:43:00,
2013-01-01 12:49:00,43.3,36.6,30.23,NW,315,0.0,0.0,77,0.00,OVC,,0.00,230.0,WeatherDisplay:10.37,2013-01-01 18:49:00,
2013-01-01 12:54:00,43.7,37.0,30.22,NW,315,0.0,0.0,77,0.00,OVC,,0.00,290.0,WeatherDisplay:10.37,2013-01-01 18:54:00,
2013-01-01 12:59:00,43.7,37.0,30.22,NW,315,0.0,0.0,77,0.00,OVC,,0.00,290.0,WeatherDisplay:10.37,2013-01-01 18:59:00,
2013-01-01 13:04:00,43.7,36.6,30.22,NW,315,0.0,0.0,76,0.00,OVC,,0.00,250.0,WeatherDisplay:10.37,2013-01-01 19:04:00,
2013-01-01 13:10:00,44.1,37.0,30.20,NW,315,0.0,0.0,76,0.00,OVC,,0.00,230.0,WeatherDisplay:10.37,2013-01-01 19:10:00,
2013-01-01 13:15:00,43.7,36.6,30.20,NW,315,0.0,0.0,76,0.00,OVC,,0.00,170.0,WeatherDisplay:10.37,2013-01-01 19:15:00,
2013-01-01 13:20:00,44.1,37.0,30.20,NW,315,0.0,0.0,76,0.00,OVC,,0.00,180.0,WeatherDisplay:10.37,2013-01-01 19:20:00,
2013-01-01 13:25:00,44.1,36.6,30.20,NE,45,6.9,6.9,75,0.00,OVC,,0.00,190.0,WeatherDisplay:10.37,2013-01-01 19:25:00,
2013-01-01 13:30:00,44.1,36.6,30.19,NW,315,5.8,5.8,75,0.00,OVC,,0.00,170.0,WeatherDisplay:10.37,2013-01-01 19:30:00,
2013-01-01 13:35:00,44.1,36.6,30.19,NW,315,9.2,9.2,75,0.00,CLR,,0.00,150.0,WeatherDisplay:10.37,2013-01-01 19:35:00,
2013-01-01 13:41:00,44.1,36.6,30.19,WNW,292,10.4,10.4,75,0.00,CLR,,0.00,140.0,WeatherDisplay:10.37,2013-01-01 19:41:00,
2013-01-01 13:46:00,44.1,36.6,30.19,NW,315,9.2,9.2,75,0.00,CLR,,0.00,140.0,WeatherDisplay:10.37,2013-01-01 19:46:00,
2013-01-01 13:51:00,43.9,36.5,30.20,NNW,338,9.3,9.3,75,0.00,CLR,,0.00,120.0,WeatherDisplay:10.37,2013-01-01 19:51:00,
2013-01-01 13:56:00,43.5,35.8,30.20,NNW,338,15.0,15.0,74,0.00,CLR,,0.00,110.0,WeatherDisplay:10.37,2013-01-01 19:56:00,
2013-01-01 14:01:00,43.3,35.6,30.20,NW,315,8.1,8.1,74,0.00,CLR,,0.00,100.0,WeatherDisplay:10.37,2013-01-01 20:01:00,
2013-01-01 14:06:00,42.8,35.1,30.20,WNW,292,12.3,12.3,74,0.00,CLR,,0.00,90.0,WeatherDisplay:10.37,2013-01-01 20:06:00,
2013-01-01 14:12:00,42.8,35.1,30.21,West,270,5.8,6.3,74,0.00,CLR,,0.00,90.0,WeatherDisplay:10.37,2013-01-01 20:12:00,
2013-01-01 14:17:00,42.6,34.9,30.21,NW,315,8.1,8.1,74,0.00,CLR,,0.00,100.0,WeatherDisplay:10.37,2013-01-01 20:17:00,
2013-01-01 14:22:00,42.6,34.9,30.21,NW,315,11.5,11.5,74,0.00,CLR,,0.00,100.0,WeatherDisplay:10.37,2013-01-01 20:22:00,
2013-01-01 14:27:00,42.6,34.9,30.21,NNW,338,11.5,11.5,74,0.00,FEW,,0.00,100.0,WeatherDisplay:10.37,2013-01-01 20:27:00,
2013-01-01 14:32:00,42.3,34.6,30.21,NNW,338,6.9,6.9,74,0.00,SCT,,0.00,130.0,WeatherDisplay:10.37,2013-01-01 20:32:00,
2013-01-01 14:38:00,42.1,34.4,30.21,NW,315,4.6,5.9,74,0.00,FEW,,0.00,130.0,WeatherDisplay:10.37,2013-01-01 20:38:00,
2013-01-01 14:43:00,42.6,34.9,30.21,North,0,6.9,6.9,74,0.00,FEW,,0.00,140.0,WeatherDisplay:10.37,2013-01-01 20:43:00,
2013-01-01 14:48:00,42.4,34.7,30.21,NW,315,2.3,4.4,74,0.00,FEW,,0.00,170.0,WeatherDisplay:10.37,2013-01-01 20:48:00,
2013-01-01 14:53:00,43.0,34.6,30.20,NW,315,11.5,11.5,72,0.00,CLR,,0.00,310.0,WeatherDisplay:10.37,2013-01-01 20:53:00,
2013-01-01 14:58:00,43.0,34.6,30.20,NW,315,9.2,9.2,72,0.00,CLR,,0.00,250.0,WeatherDisplay:10.37,2013-01-01 20:58:00,
2013-01-01 15:03:00,42.4,34.0,30.20,NW,315,9.2,9.2,72,0.00,CLR,,0.00,210.0,WeatherDisplay:10.37,2013-01-01 21:03:00,
2013-01-01 15:09:00,42.8,34.4,30.20,NW,315,9.2,9.2,72,0.00,CLR,,0.00,360.0,WeatherDisplay:10.37,2013-01-01 21:09:00,
2013-01-01 15:14:00,43.0,34.6,30.20,NW,315,9.2,9.2,72,0.00,CLR,,0.00,350.0,WeatherDisplay:10.37,2013-01-01 21:14:00,
2013-01-01 15:19:00,43.0,34.6,30.20,West,270,9.2,9.2,72,0.00,CLR,,0.00,250.0,WeatherDisplay:10.37,2013-01-01 21:19:00,
2013-01-01 15:24:00,43.2,34.4,30.20,NNW,338,9.3,9.3,71,0.00,FEW,,0.00,220.0,WeatherDisplay:10.37,2013-01-01 21:24:00,
2013-01-01 15:29:00,43.2,34.4,30.20,NW,315,4.6,4.6,71,0.00,SCT,,0.00,190.0,WeatherDisplay:10.37,2013-01-01 21:29:00,
2013-01-01 15:35:00,43.7,34.6,30.20,WNW,292,8.1,8.1,70,0.00,SCT,,0.00,210.0,WeatherDisplay:10.37,2013-01-01 21:35:00,
2013-01-01 15:40:00,45.1,35.6,30.20,NW,315,5.8,5.8,69,0.00,FEW,,0.00,270.0,WeatherDisplay:10.37,2013-01-01 21:40:00,
2013-01-01 15:45:00,45.5,35.5,30.20,NNW,338,8.1,8.1,68,0.00,FEW,,0.00,280.0,WeatherDisplay:10.37,2013-01-01 21:45:00,
2013-01-01 15:50:00,44.2,34.3,30.22,NW,315,2.3,5.8,68,0.00,SCT,,0.00,200.0,WeatherDisplay:10.37,2013-01-01 21:50:00,
2013-01-01 15:55:00,44.1,34.2,30.22,NW,315,6.9,6.9,68,0.00,OVC,,0.00,130.0,WeatherDisplay:10.37,2013-01-01 21:55:00,
2013-01-01 16:00:00,43.2,33.7,30.22,NW,315,11.5,11.5,69,0.00,OVC,,0.00,110.0,WeatherDisplay:10.37,2013-01-01 22:00:00,
2013-01-01 16:05:00,43.2,33.7,30.22,NNW,338,4.6,4.9,69,0.00,OVC,,0.00,130.0,WeatherDisplay:10.37,2013-01-01 22:05:00,
2013-01-01 16:11:00,43.2,34.0,30.22,NNW,338,6.9,6.9,70,0.00,OVC,,0.00,140.0,WeatherDisplay:10.37,2013-01-01 22:11:00,
2013-01-01 16:16:00,42.8,33.7,30.22,North,0,13.1,13.1,70,0.00,OVC,,0.00,110.0,WeatherDisplay:10.37,2013-01-01 22:16:00,
2013-01-01 16:21:00,42.1,32.6,30.22,NW,315,8.1,8.1,69,0.00,OVC,,0.00,80.0,WeatherDisplay:10.37,2013-01-01 22:21:00,
2013-01-01 16:26:00,42.1,33.0,30.22,NNW,338,6.9,6.9,70,0.00,OVC,,0.00,70.0,WeatherDisplay:10.37,2013-01-01 22:26:00,
2013-01-01 16:31:00,42.1,33.0,30.23,North,0,6.9,6.9,70,0.00,OVC,,0.00,50.0,WeatherDisplay:10.37,2013-01-01 22:31:00,
2013-01-01 16:37:00,41.9,33.2,30.23,NW,315,11.5,11.5,71,0.00,OVC,,0.00,50.0,WeatherDisplay:10.37,2013-01-01 22:37:00,
2013-01-01 16:42:00,41.5,32.8,30.23,NW,315,9.2,9.2,71,0.00,OVC,,0.00,20.0,WeatherDisplay:10.37,2013-01-01 22:42:00,
2013-01-01 16:47:00,41.2,32.8,30.23,NNW,338,8.1,8.1,72,0.00,OVC,,0.00,20.0,WeatherDisplay:10.37,2013-01-01 22:47:00,
2013-01-01 16:52:00,41.0,32.7,30.24,NW,315,4.6,5.5,72,0.00,OVC,,0.00,10.0,WeatherDisplay:10.37,2013-01-01 22:52:00,
2013-01-01 16:57:00,40.6,32.3,30.24,NW,315,13.8,13.8,72,0.00,OVC,,0.00,10.0,WeatherDisplay:10.37,2013-01-01 22:57:00,
2013-01-01 17:02:00,40.5,32.1,30.24,NNW,338,7.5,7.5,72,0.00,OVC,,0.00,0.0,WeatherDisplay:10.37,2013-01-01 23:02:00,
2013-01-01 17:07:00,40.5,32.5,30.24,West,270,8.1,8.1,73,0.00,OVC,,0.00,0.0,WeatherDisplay:10.37,2013-01-01 23:07:00,
2013-01-01 17:13:00,40.5,32.5,30.24,NW,315,8.1,8.1,73,0.00,OVC,,0.00,0.0,WeatherDisplay:10.37,2013-01-01 23:13:00,
2013-01-01 17:18:00,39.9,32.0,30.24,NNW,338,8.1,8.1,73,0.00,OVC,,0.00,0.0,WeatherDisplay:10.37,2013-01-01 23:18:00,
2013-01-01 17:23:00,39.9,32.0,30.24,NNW,338,6.9,6.9,73,0.00,OVC,,0.00,0.0,WeatherDisplay:10.37,2013-01-01 23:23:00,
2013-01-01 17:28:00,39.7,31.8,30.24,NW,315,9.2,9.2,73,0.00,OVC,,0.00,0.0,WeatherDisplay:10.37,2013-01-01 23:28:00,
2013-01-01 17:33:00,39.4,31.4,30.25,NW,315,8.1,8.1,73,0.00,OVC,,0.00,0.0,WeatherDisplay:10.37,2013-01-01 23:33:00,
2013-01-01 17:38:00,39.4,31.8,30.25,South,180,12.7,12.7,74,0.00,OVC,,0.00,0.0,WeatherDisplay:10.37,2013-01-01 23:38:00,
2013-01-01 17:44:00,39.2,31.6,30.25,NW,315,9.2,9.2,74,0.00,OVC,,0.00,0.0,WeatherDisplay:10.37,2013-01-01 23:44:00,
2013-01-01 17:49:00,39.2,31.6,30.25,ESE,112,3.5,5.1,74,0.00,OVC,,0.00,0.0,WeatherDisplay:10.37,2013-01-01 23:49:00,
2013-01-01 17:54:00,39.0,31.4,30.26,NNW,338,6.9,6.9,74,0.00,OVC,,0.00,0.0,WeatherDisplay:10.37,2013-01-01 23:54:00,
2013-01-01 17:59:00,39.0,31.4,30.26,NW,315,6.9,6.9,74,0.00,OVC,,0.00,0.0,WeatherDisplay:10.37,2013-01-01 23:59:00,
2013-01-01 18:04:00,39.0,31.4,30.26,NW,315,6.9,6.9,74,0.00,CLR,,0.00,0.0,WeatherDisplay:10.37,2013-01-02 00:04:00,
2013-01-01 18:10:00,38.5,30.9,30.26,NW,315,9.2,9.2,74,0.00,CLR,,0.00,0.0,WeatherDisplay:10.37,2013-01-02 00:10:00,
2013-01-01 18:15:00,38.5,31.2,30.25,NW,315,6.9,6.9,75,0.00,CLR,,0.00,0.0,WeatherDisplay:10.37,2013-01-02 00:15:00,
2013-01-01 18:20:00,38.5,31.2,30.25,NNW,338,3.5,5.3,75,0.00,CLR,,0.00,0.0,WeatherDisplay:10.37,2013-01-02 00:20:00,
2013-01-01 18:25:00,38.5,31.2,30.25,NNW,338,3.8,5.3,75,0.00,CLR,,0.00,0.0,WeatherDisplay:10.37,2013-01-02 00:25:00,
2013-01-01 18:31:00,38.5,31.2,30.26,NNW,338,3.5,5.3,75,0.00,CLR,,0.00,0.0,WeatherDisplay:10.37,2013-01-02 00:31:00,
2013-01-01 18:36:00,38.3,31.1,30.26,NNW,338,3.5,0.0,75,0.00,CLR,,0.00,0.0,WeatherDisplay:10.37,2013-01-02 00:36:00,
2013-01-01 18:41:00,38.3,31.1,30.26,NNW,338,0.0,0.0,75,0.00,CLR,,0.00,0.0,WeatherDisplay:10.37,2013-01-02 00:41:00,
2013-01-01 18:46:00,38.3,31.1,30.26,NNW,338,0.0,0.0,75,0.00,CLR,,0.00,0.0,WeatherDisplay:10.37,2013-01-02 00:46:00,
2013-01-01 18:51:00,38.3,31.1,30.27,NNW,338,0.0,0.0,75,0.00,CLR,,0.00,0.0,WeatherDisplay:10.37,2013-01-02 00:51:00,
2013-01-01 18:57:00,37.9,30.7,30.27,NNW,338,0.0,0.0,75,0.00,CLR,,0.00,0.0,WeatherDisplay:10.37,2013-01-02 00:57:00,
2013-01-01 19:02:00,37.9,30.7,30.27,NW,315,4.6,4.6,75,0.00,CLR,,0.00,0.0,WeatherDisplay:10.37,2013-01-02 01:02:00,
2013-01-01 19:07:00,37.9,30.7,30.27,NW,315,6.9,6.9,75,0.00,CLR,,0.00,0.0,WeatherDisplay:10.37,2013-01-02 01:07:00,
2013-01-01 19:12:00,37.9,30.7,30.26,West,270,6.9,6.9,75,0.00,CLR,,0.00,0.0,WeatherDisplay:10.37,2013-01-02 01:12:00,
2013-01-01 19:18:00,37.8,30.5,30.26,NW,315,8.1,8.1,75,0.00,CLR,,0.00,0.0,WeatherDisplay:10.37,2013-01-02 01:18:00,
2013-01-01 19:23:00,37.8,30.5,30.26,WNW,292,4.6,4.6,75,0.00,CLR,,0.00,0.0,WeatherDisplay:10.37,2013-01-02 01:23:00,
2013-01-01 19:28:00,37.8,30.5,30.26,NNW,338,6.9,6.9,75,0.00,CLR,,0.00,0.0,WeatherDisplay:10.37,2013-01-02 01:28:00,
2013-01-01 19:33:00,37.8,30.5,30.27,NW,315,3.9,3.9,75,0.00,CLR,,0.00,0.0,WeatherDisplay:10.37,2013-01-02 01:33:00,
2013-01-01 19:39:00,37.8,30.5,30.27,NW,315,6.9,6.9,75,0.00,CLR,,0.00,0.0,WeatherDisplay:10.37,2013-01-02 01:39:00,
2013-01-01 19:44:00,37.8,30.5,30.27,NW,315,5.8,5.8,75,0.00,CLR,,0.00,0.0,WeatherDisplay:10.37,2013-01-02 01:44:00,
2013-01-01 19:49:00,37.8,30.5,30.27,NNW,338,4.6,4.6,75,0.00,CLR,,0.00,0.0,WeatherDisplay:10.37,2013-01-02 01:49:00,
2013-01-01 19:54:00,37.9,30.7,30.27,NNW,338,3.5,3.7,75,0.00,CLR,,0.00,0.0,WeatherDisplay:10.37,2013-01-02 01:54:00,
2013-01-01 20:00:00,37.8,30.5,30.27,NW,315,5.8,5.8,75,0.00,CLR,,0.00,0.0,WeatherDisplay:10.37,2013-01-02 02:00:00,
2013-01-01 20:05:00,37.8,30.5,30.27,NNW,338,3.5,3.5,75,0.00,CLR,,0.00,0.0,WeatherDisplay:10.37,2013-01-02 02:05:00,
2013-01-01 20:10:00,37.8,30.5,30.26,North,0,3.5,3.5,75,0.00,CLR,,0.00,0.0,WeatherDisplay:10.37,2013-01-02 02:10:00,
2013-01-01 20:15:00,37.8,30.5,30.26,NNW,338,2.3,2.6,75,0.00,CLR,,0.00,0.0,WeatherDisplay:10.37,2013-01-02 02:15:00,
2013-01-01 20:21:00,37.8,30.5,30.26,NW,315,5.8,5.8,75,0.00,CLR,,0.00,0.0,WeatherDisplay:10.37,2013-01-02 02:21:00,
2013-01-01 20:26:00,37.8,30.5,30.26,NW,315,3.5,3.5,75,0.00,CLR,,0.00,0.0,WeatherDisplay:10.37,2013-01-02 02:26:00,
2013-01-01 20:31:00,37.8,30.5,30.27,NNE,22,4.6,4.6,75,0.00,CLR,,0.00,0.0,WeatherDisplay:10.37,2013-01-02 02:31:00,
2013-01-01 20:37:00,37.9,31.0,30.27,NW,315,4.6,4.6,76,0.00,CLR,,0.00,0.0,WeatherDisplay:10.37,2013-01-02 02:37:00,
2013-01-01 20:42:00,37.8,30.9,30.27,NW,315,5.8,5.8,76,0.00,CLR,,0.00,0.0,WeatherDisplay:10.37,2013-01-02 02:42:00,
2013-01-01 20:47:00,37.8,30.9,30.27,NW,315,6.9,6.9,76,0.00,CLR,,0.00,0.0,WeatherDisplay:10.37,2013-01-02 02:47:00,
2013-01-01 20:52:00,37.8,30.9,30.26,NNE,22,4.6,4.6,76,0.00,CLR,,0.00,0.0,WeatherDisplay:10.37,2013-01-02 02:52:00,
2013-01-01 20:58:00,37.9,31.0,30.26,NW,315,4.6,4.6,76,0.00,CLR,,0.00,0.0,WeatherDisplay:10.37,2013-01-02 02:58:00,
2013-01-01 21:03:00,37.9,31.0,30.26,NW,315,5.8,5.8,76,0.00,CLR,,0.00,0.0,WeatherDisplay:10.37,2013-01-02 03:03:00,
2013-01-01 21:08:00,37.9,31.0,30.26,WNW,292,4.6,4.6,76,0.00,CLR,,0.00,0.0,WeatherDisplay:10.37,2013-01-02 03:08:00,
2013-01-01 21:13:00,37.9,31.0,30.27,NNW,338,2.3,3.2,76,0.00,CLR,,0.00,0.0,WeatherDisplay:10.37,2013-01-02 03:13:00,
2013-01-01 21:19:00,37.9,31.0,30.27,NW,315,2.4,2.4,76,0.00,CLR,,0.00,0.0,WeatherDisplay:10.37,2013-01-02 03:19:00,
2013-01-01 21:24:00,37.9,31.0,30.27,NW,315,8.1,8.1,76,0.00,CLR,,0.00,0.0,WeatherDisplay:10.37,2013-01-02 03:24:00,
2013-01-01 21:29:00,37.8,30.5,30.27,NW,315,3.5,3.5,75,0.00,CLR,,0.00,0.0,WeatherDisplay:10.37,2013-01-02 03:29:00,
2013-01-01 21:34:00,37.9,31.0,30.27,NNE,22,3.5,3.5,76,0.00,CLR,,0.00,0.0,WeatherDisplay:10.37,2013-01-02 03:34:00,
2013-01-01 21:40:00,37.8,30.5,30.27,NNW,338,6.9,6.9,75,0.00,CLR,,0.00,0.0,WeatherDisplay:10.37,2013-01-02 03:40:00,
2013-01-01 21:45:00,37.8,30.5,30.27,NNW,338,3.5,3.5,75,0.00,CLR,,0.00,0.0,WeatherDisplay:10.37,2013-01-02 03:45:00,
2013-01-01 21:50:00,37.8,30.5,30.27,NW,315,7.1,7.1,75,0.00,CLR,,0.00,0.0,WeatherDisplay:10.37,2013-01-02 03:50:00,
2013-01-01 21:56:00,37.6,30.4,30.27,North,0,6.9,6.9,75,0.00,CLR,,0.00,0.0,WeatherDisplay:10.37,2013-01-02 03:56:00,
2013-01-01 22:01:00,37.4,30.2,30.27,NNE,22,2.3,3.5,75,0.00,CLR,,0.00,0.0,WeatherDisplay:10.37,2013-01-02 04:01:00,
2013-01-01 22:06:00,37.6,30.4,30.27,NNW,338,4.6,4.6,75,0.00,CLR,,0.00,0.0,WeatherDisplay:10.37,2013-01-02 04:06:00,
2013-01-01 22:11:00,37.6,30.4,30.28,WNW,292,2.3,2.6,75,0.00,CLR,,0.00,0.0,WeatherDisplay:10.37,2013-01-02 04:11:00,
2013-01-01 22:16:00,37.6,30.4,30.28,NW,315,6.9,6.9,75,0.00,CLR,,0.00,0.0,WeatherDisplay:10.37,2013-01-02 04:16:00,
2013-01-01 22:21:00,37.2,30.0,30.28,NW,315,2.3,3.5,75,0.00,CLR,,0.00,0.0,WeatherDisplay:10.37,2013-01-02 04:21:00,
2013-01-01 22:27:00,37.2,30.0,30.28,NW,315,6.9,6.9,75,0.00,CLR,,0.00,0.0,WeatherDisplay:10.37,2013-01-02 04:27:00,
2013-01-01 22:32:00,37.2,29.7,30.28,West,270,8.1,8.1,74,0.00,CLR,,0.00,0.0,WeatherDisplay:10.37,2013-01-02 04:32:00,
2013-01-01 22:37:00,37.2,29.7,30.28,WNW,292,4.9,4.9,74,0.00,CLR,,0.00,0.0,WeatherDisplay:10.37,2013-01-02 04:37:00,
2013-01-01 22:43:00,37.2,30.0,30.28,NNW,338,2.3,3.1,75,0.00,CLR,,0.00,0.0,WeatherDisplay:10.37,2013-01-02 04:43:00,
2013-01-01 22:48:00,37.4,29.9,30.28,NNW,338,2.3,2.8,74,0.00,CLR,,0.00,0.0,WeatherDisplay:10.37,2013-01-02 04:48:00,
2013-01-01 22:53:00,37.4,29.9,30.29,NNW,338,2.3,2.6,74,0.00,CLR,,0.00,0.0,WeatherDisplay:10.37,2013-01-02 04:53:00,
2013-01-01 22:58:00,37.2,29.7,30.29,NW,315,6.9,6.9,74,0.00,CLR,,0.00,0.0,WeatherDisplay:10.37,2013-01-02 04:58:00,
2013-01-01 23:00:00,37.2,29.7,30.29,NNW,338,6.9,6.9,74,0.00,CLR,,0.00,0.0,WeatherDisplay:10.37,2013-01-02 05:00:00,
2013-01-01 23:02:00,37.2,29.7,30.29,NW,315,5.8,5.8,74,0.00,CLR,,0.00,0.0,WeatherDisplay:10.37,2013-01-02 05:02:00,
2013-01-01 23:03:00,37.2,29.7,30.29,NW,315,3.5,3.5,74,0.00,CLR,,0.00,0.0,WeatherDisplay:10.37,2013-01-02 05:03:00,
2013-01-01 23:08:00,37.2,29.7,30.29,NNW,338,5.8,5.8,74,0.00,CLR,,0.00,0.0,WeatherDisplay:10.37,2013-01-02 05:08:00,
2013-01-01 23:13:00,37.2,29.7,30.29,WNW,292,3.5,3.5,74,0.00,CLR,,0.00,0.0,WeatherDisplay:10.37,2013-01-02 05:13:00,
2013-01-01 23:18:00,37.2,30.0,30.29,NW,315,6.9,6.9,75,0.00,CLR,,0.00,0.0,WeatherDisplay:10.37,2013-01-02 05:18:00,
2013-01-01 23:23:00,37.0,29.8,30.29,NNW,338,8.1,8.1,75,0.00,CLR,,0.00,0.0,WeatherDisplay:10.37,2013-01-02 05:23:00,
2013-01-01 23:28:00,37.0,29.8,30.29,NNW,338,5.8,5.8,75,0.00,CLR,,0.00,0.0,WeatherDisplay:10.37,2013-01-02 05:28:00,
2013-01-01 23:34:00,37.0,29.8,30.28,NW,315,5.8,5.8,75,0.00,CLR,,0.00,0.0,WeatherDisplay:10.37,2013-01-02 05:34:00,
2013-01-01 23:39:00,37.2,30.0,30.28,NW,315,6.9,6.9,75,0.00,CLR,,0.00,0.0,WeatherDisplay:10.37,2013-01-02 05:39:00,
2013-01-01 23:44:00,37.0,29.5,30.28,NNE,22,5.8,5.8,74,0.00,CLR,,0.00,0.0,WeatherDisplay:10.37,2013-01-02 05:44:00,
2013-01-01 23:49:00,37.0,29.5,30.28,NW,315,4.6,4.6,74,0.00,CLR,,0.00,0.0,WeatherDisplay:10.37,2013-01-02 05:49:00,
2013-01-01 23:54:00,37.2,29.7,30.28,North,0,2.3,2.6,74,0.00,CLR,,0.00,0.0,WeatherDisplay:10.37,2013-01-02 05:54:00,